createdAt,value
2018-09-03T00:00:39.207Z,13.30
2018-09-03T00:01:39.628Z,13.27
2018-09-03T00:02:40.102Z,13.26
2018-09-03T00:03:40.570Z,13.25
2018-09-03T00:04:41.040Z,13.29
2018-09-03T00:05:41.511Z,13.31
2018-09-03T00:06:42.093Z,13.34
2018-09-03T00:07:42.452Z,13.44
2018-09-03T00:08:42.921Z,13.50
2018-09-03T00:09:43.394Z,13.57
2018-09-03T00:10:43.864Z,13.67
2018-09-03T00:11:44.333Z,13.73
2018-09-03T00:12:44.802Z,13.83
2018-09-03T00:13:45.270Z,13.96
2018-09-03T00:14:45.743Z,14.10
2018-09-03T00:15:46.214Z,14.19
2018-09-03T00:16:46.682Z,14.32
2018-09-03T00:17:47.154Z,14.45
2018-09-03T00:18:47.627Z,14.55
2018-09-03T00:19:48.094Z,14.62
2018-09-03T00:20:48.564Z,14.70
2018-09-03T00:21:49.035Z,14.79
2018-09-03T00:22:49.506Z,14.88
2018-09-03T00:23:49.976Z,14.97
2018-09-03T00:24:50.450Z,15.03
2018-09-03T00:25:50.972Z,15.12
2018-09-03T00:26:51.391Z,15.19
2018-09-03T00:27:51.864Z,15.27
2018-09-03T00:28:52.358Z,15.36
2018-09-03T00:29:52.804Z,15.46
2018-09-03T00:30:53.278Z,15.53
2018-09-03T00:31:53.749Z,15.60
2018-09-03T00:32:54.221Z,15.66
2018-09-03T00:33:54.694Z,15.75
2018-09-03T00:34:55.166Z,15.81
2018-09-03T00:35:55.638Z,15.89
2018-09-03T00:36:56.110Z,15.97
2018-09-03T00:37:56.583Z,16.01
2018-09-03T00:38:57.058Z,16.04
2018-09-03T00:39:57.529Z,16.10
2018-09-03T00:40:58.001Z,16.15
2018-09-03T00:41:58.475Z,16.21
2018-09-03T00:42:58.950Z,16.22
2018-09-03T00:43:59.423Z,16.22
2018-09-03T00:44:59.895Z,16.22
2018-09-03T00:46:00.420Z,16.20
2018-09-03T00:47:00.844Z,16.15
2018-09-03T00:48:01.317Z,16.10
2018-09-03T00:49:01.789Z,16.01
2018-09-03T00:50:02.265Z,15.91
2018-09-03T00:51:02.737Z,15.80
2018-09-03T00:52:03.211Z,15.68
2018-09-03T00:53:03.685Z,15.58
2018-09-03T00:54:04.159Z,15.46
2018-09-03T00:55:04.634Z,15.33
2018-09-03T00:56:05.156Z,15.20
2018-09-03T00:57:05.580Z,15.06
2018-09-03T00:58:06.052Z,14.91
2018-09-03T00:59:06.531Z,14.77
2018-09-03T01:00:07.001Z,14.60
2018-09-03T01:01:07.471Z,14.44
2018-09-03T01:02:07.942Z,14.27
2018-09-03T01:03:08.416Z,14.10
2018-09-03T01:04:08.887Z,13.90
2018-09-03T01:05:09.362Z,13.73
2018-09-03T01:06:09.832Z,13.56
2018-09-03T01:07:10.303Z,13.42
2018-09-03T01:08:10.773Z,13.27
2018-09-03T01:09:11.245Z,13.14
2018-09-03T01:10:11.717Z,13.03
2018-09-03T01:11:12.238Z,12.93
2018-09-03T01:12:12.658Z,12.86
2018-09-03T01:13:13.128Z,12.82
2018-09-03T01:14:13.600Z,12.81
2018-09-03T01:15:14.069Z,12.82
2018-09-03T01:16:14.538Z,12.85
2018-09-03T01:17:15.012Z,12.89
2018-09-03T01:18:15.478Z,12.94
2018-09-03T01:19:15.949Z,13.01
2018-09-03T01:20:16.417Z,13.07
2018-09-03T01:21:16.890Z,13.14
2018-09-03T01:22:17.357Z,13.21
2018-09-03T01:23:17.827Z,13.31
2018-09-03T01:24:18.297Z,13.42
2018-09-03T01:25:18.766Z,13.55
2018-09-03T01:26:19.237Z,13.66
2018-09-03T01:27:19.708Z,13.78
2018-09-03T01:28:20.175Z,13.90
2018-09-03T01:29:20.648Z,14.03
2018-09-03T01:30:21.118Z,14.15
2018-09-03T01:31:21.589Z,14.29
2018-09-03T01:32:22.059Z,14.37
2018-09-03T01:33:22.528Z,14.48
2018-09-03T01:34:23.000Z,14.57
2018-09-03T01:35:23.470Z,14.66
2018-09-03T01:36:23.943Z,14.73
2018-09-03T01:37:24.412Z,14.81
2018-09-03T01:38:24.883Z,14.88
2018-09-03T01:39:25.357Z,14.94
2018-09-03T01:40:25.825Z,14.99
2018-09-03T01:41:26.297Z,15.05
2018-09-03T01:42:26.768Z,15.11
2018-09-03T01:43:27.240Z,15.17
2018-09-03T01:44:27.712Z,15.24
2018-09-03T01:45:28.183Z,15.30
2018-09-03T01:46:28.655Z,15.36
2018-09-03T01:47:29.128Z,15.41
2018-09-03T01:48:29.599Z,15.46
2018-09-03T01:49:30.074Z,15.52
2018-09-03T01:50:30.547Z,15.55
2018-09-03T01:51:31.017Z,15.60
2018-09-03T01:52:31.488Z,15.63
2018-09-03T01:53:31.963Z,15.68
2018-09-03T01:54:32.434Z,15.73
2018-09-03T01:55:32.908Z,15.76
2018-09-03T01:56:33.380Z,15.82
2018-09-03T01:57:33.855Z,15.83
2018-09-03T01:58:34.327Z,15.83
2018-09-03T01:59:34.801Z,15.79
2018-09-03T02:00:35.277Z,15.74
2018-09-03T02:01:35.748Z,15.69
2018-09-03T02:02:36.222Z,15.60
2018-09-03T02:03:36.695Z,15.49
2018-09-03T02:04:37.171Z,15.38
2018-09-03T02:05:37.644Z,15.26
2018-09-03T02:06:38.115Z,15.12
2018-09-03T02:07:38.590Z,14.98
2018-09-03T02:08:39.061Z,14.83
2018-09-03T02:09:39.536Z,14.67
2018-09-03T02:10:40.009Z,14.51
2018-09-03T02:11:40.532Z,14.36
2018-09-03T02:12:40.956Z,14.21
2018-09-03T02:13:41.446Z,14.05
2018-09-03T02:14:41.900Z,13.89
2018-09-03T02:15:42.372Z,13.71
2018-09-03T02:16:42.844Z,13.55
2018-09-03T02:17:43.315Z,13.37
2018-09-03T02:18:43.794Z,13.19
2018-09-03T02:19:44.293Z,13.01
2018-09-03T02:20:44.731Z,12.84
2018-09-03T02:21:45.200Z,12.67
2018-09-03T02:22:45.672Z,12.54
2018-09-03T02:23:46.146Z,12.45
2018-09-03T02:24:46.614Z,12.36
2018-09-03T02:25:47.084Z,12.29
2018-09-03T02:26:47.554Z,12.26
2018-09-03T02:27:48.023Z,12.27
2018-09-03T02:28:48.494Z,12.31
2018-09-03T02:29:48.965Z,12.35
2018-09-03T02:30:49.434Z,12.37
2018-09-03T02:31:49.903Z,12.43
2018-09-03T02:32:50.372Z,12.49
2018-09-03T02:33:50.846Z,12.56
2018-09-03T02:34:51.312Z,12.64
2018-09-03T02:35:51.792Z,12.74
2018-09-03T02:36:52.250Z,12.85
2018-09-03T02:37:52.721Z,12.99
2018-09-03T02:38:53.189Z,13.10
2018-09-03T02:39:53.661Z,13.26
2018-09-03T02:40:54.130Z,13.36
2018-09-03T02:41:54.600Z,13.45
2018-09-03T02:42:55.071Z,13.53
2018-09-03T02:43:55.540Z,13.64
2018-09-03T02:44:56.015Z,13.73
2018-09-03T02:45:56.485Z,13.83
2018-09-03T02:46:56.952Z,13.92
2018-09-03T02:47:57.424Z,14.00
2018-09-03T02:48:57.891Z,14.08
2018-09-03T02:49:58.360Z,14.14
2018-09-03T02:50:58.833Z,14.22
2018-09-03T02:51:59.302Z,14.30
2018-09-03T02:52:59.773Z,14.35
2018-09-03T02:54:00.244Z,14.41
2018-09-03T02:55:00.715Z,14.50
2018-09-03T02:56:01.187Z,14.56
2018-09-03T02:57:01.659Z,14.68
2018-09-03T02:58:02.131Z,14.76
2018-09-03T02:59:02.602Z,14.83
2018-09-03T03:00:03.073Z,14.88
2018-09-03T03:01:03.544Z,14.94
2018-09-03T03:02:04.016Z,15.00
2018-09-03T03:03:04.488Z,15.04
2018-09-03T03:04:04.960Z,15.07
2018-09-03T03:05:05.430Z,15.12
2018-09-03T03:06:05.902Z,15.16
2018-09-03T03:07:06.426Z,15.22
2018-09-03T03:08:06.848Z,15.25
2018-09-03T03:09:07.321Z,15.28
2018-09-03T03:10:07.792Z,15.34
2018-09-03T03:11:08.264Z,15.38
2018-09-03T03:12:08.736Z,15.41
2018-09-03T03:13:09.210Z,15.44
2018-09-03T03:14:09.683Z,15.46
2018-09-03T03:15:10.157Z,15.51
2018-09-03T03:16:10.630Z,15.49
2018-09-03T03:17:11.102Z,15.45
2018-09-03T03:18:11.578Z,15.41
2018-09-03T03:19:12.050Z,15.34
2018-09-03T03:20:12.523Z,15.26
2018-09-03T03:21:12.995Z,15.16
2018-09-03T03:22:13.470Z,15.05
2018-09-03T03:23:13.941Z,14.93
2018-09-03T03:24:14.416Z,14.81
2018-09-03T03:25:14.888Z,14.69
2018-09-03T03:26:15.361Z,14.56
2018-09-03T03:27:15.838Z,14.42
2018-09-03T03:28:16.307Z,14.29
2018-09-03T03:29:16.778Z,14.15
2018-09-03T03:30:17.253Z,14.02
2018-09-03T03:31:17.726Z,13.88
2018-09-03T03:32:18.198Z,13.73
2018-09-03T03:33:18.668Z,13.56
2018-09-03T03:34:19.142Z,13.39
2018-09-03T03:35:19.612Z,13.22
2018-09-03T03:36:20.087Z,13.05
2018-09-03T03:37:20.606Z,12.88
2018-09-03T03:38:21.026Z,12.72
2018-09-03T03:39:21.499Z,12.60
2018-09-03T03:40:21.968Z,12.51
2018-09-03T03:41:22.439Z,12.45
2018-09-03T03:42:22.908Z,12.40
2018-09-03T03:43:23.377Z,12.37
2018-09-03T03:44:23.850Z,12.39
2018-09-03T03:45:24.318Z,12.40
2018-09-03T03:46:24.787Z,12.44
2018-09-03T03:47:25.262Z,12.49
2018-09-03T03:48:25.729Z,12.56
2018-09-03T03:49:26.201Z,12.61
2018-09-03T03:50:26.668Z,12.68
2018-09-03T03:51:27.140Z,12.75
2018-09-03T03:52:27.611Z,12.83
2018-09-03T03:53:28.075Z,12.91
2018-09-03T03:54:28.546Z,13.03
2018-09-03T03:55:29.019Z,13.13
2018-09-03T03:56:29.489Z,13.24
2018-09-03T03:57:30.007Z,13.34
2018-09-03T03:58:30.425Z,13.43
2018-09-03T03:59:30.899Z,13.53
2018-09-03T04:00:31.366Z,13.59
2018-09-03T04:01:31.837Z,13.68
2018-09-03T04:02:32.357Z,13.73
2018-09-03T04:03:32.778Z,13.82
2018-09-03T04:04:33.249Z,13.90
2018-09-03T04:05:33.716Z,13.96
2018-09-03T04:06:34.189Z,14.02
2018-09-03T04:07:34.660Z,14.10
2018-09-03T04:08:35.130Z,14.17
2018-09-03T04:09:35.602Z,14.25
2018-09-03T04:10:36.074Z,14.30
2018-09-03T04:11:36.543Z,14.38
2018-09-03T04:12:37.017Z,14.44
2018-09-03T04:13:37.485Z,14.56
2018-09-03T04:14:37.960Z,14.61
2018-09-03T04:15:38.428Z,14.69
2018-09-03T04:16:38.901Z,14.76
2018-09-03T04:17:39.370Z,14.80
2018-09-03T04:18:39.842Z,14.85
2018-09-03T04:19:40.314Z,14.92
2018-09-03T04:20:40.794Z,14.96
2018-09-03T04:21:41.259Z,15.00
2018-09-03T04:22:41.730Z,15.03
2018-09-03T04:23:42.206Z,15.07
2018-09-03T04:24:42.707Z,15.10
2018-09-03T04:25:43.149Z,15.09
2018-09-03T04:26:43.621Z,15.13
2018-09-03T04:27:44.094Z,15.18
2018-09-03T04:28:44.646Z,15.21
2018-09-03T04:29:45.042Z,15.21
2018-09-03T04:30:45.510Z,15.24
2018-09-03T04:31:45.985Z,15.25
2018-09-03T04:32:46.459Z,15.29
2018-09-03T04:33:46.930Z,15.26
2018-09-03T04:34:47.407Z,15.22
2018-09-03T04:35:47.877Z,15.17
2018-09-03T04:36:48.351Z,15.11
2018-09-03T04:37:48.824Z,15.01
2018-09-03T04:38:49.321Z,14.90
2018-09-03T04:39:49.774Z,14.80
2018-09-03T04:40:50.243Z,14.69
2018-09-03T04:41:50.719Z,14.57
2018-09-03T04:42:51.189Z,14.46
2018-09-03T04:43:51.665Z,14.33
2018-09-03T04:44:52.135Z,14.19
2018-09-03T04:45:52.607Z,14.05
2018-09-03T04:46:53.082Z,13.91
2018-09-03T04:47:53.573Z,13.78
2018-09-03T04:48:54.026Z,13.64
2018-09-03T04:49:54.498Z,13.49
2018-09-03T04:50:54.972Z,13.32
2018-09-03T04:51:55.442Z,13.16
2018-09-03T04:52:55.965Z,12.99
2018-09-03T04:53:56.388Z,12.81
2018-09-03T04:54:56.856Z,12.64
2018-09-03T04:55:57.332Z,12.50
2018-09-03T04:56:57.799Z,12.40
2018-09-03T04:57:58.269Z,12.32
2018-09-03T04:58:58.740Z,12.26
2018-09-03T04:59:59.209Z,12.22
2018-09-03T05:00:59.680Z,12.20
2018-09-03T05:02:00.149Z,12.24
2018-09-03T05:03:00.619Z,12.25
2018-09-03T05:04:01.091Z,12.27
2018-09-03T05:05:01.559Z,12.31
2018-09-03T05:06:02.045Z,12.36
2018-09-03T05:07:02.501Z,12.44
2018-09-03T05:08:02.969Z,12.51
2018-09-03T05:09:03.442Z,12.62
2018-09-03T05:10:03.906Z,12.74
2018-09-03T05:11:04.379Z,12.82
2018-09-03T05:12:04.849Z,12.93
2018-09-03T05:13:05.316Z,13.07
2018-09-03T05:14:05.785Z,13.20
2018-09-03T05:15:06.254Z,13.32
2018-09-03T05:16:06.727Z,13.42
2018-09-03T05:17:07.197Z,13.52
2018-09-03T05:18:07.666Z,13.59
2018-09-03T05:19:08.135Z,13.69
2018-09-03T05:20:08.609Z,13.83
2018-09-03T05:21:09.075Z,13.95
2018-09-03T05:22:09.549Z,14.05
2018-09-03T05:23:10.020Z,14.15
2018-09-03T05:24:10.487Z,14.25
2018-09-03T05:25:10.962Z,14.36
2018-09-03T05:26:11.429Z,14.47
2018-09-03T05:27:11.900Z,14.54
2018-09-03T05:28:12.371Z,14.63
2018-09-03T05:29:12.842Z,14.74
2018-09-03T05:30:13.314Z,14.81
2018-09-03T05:31:13.850Z,14.90
2018-09-03T05:32:14.255Z,15.00
2018-09-03T05:33:14.731Z,15.07
2018-09-03T05:34:15.199Z,15.16
2018-09-03T05:35:15.674Z,15.24
2018-09-03T05:36:16.150Z,15.29
2018-09-03T05:37:16.615Z,15.38
2018-09-03T05:38:17.086Z,15.45
2018-09-03T05:39:17.565Z,15.53
2018-09-03T05:40:18.033Z,15.61
2018-09-03T05:41:18.504Z,15.66
2018-09-03T05:42:18.979Z,15.73
2018-09-03T05:43:19.548Z,15.81
2018-09-03T05:44:19.923Z,15.88
2018-09-03T05:45:20.399Z,15.94
2018-09-03T05:46:20.868Z,16.01
2018-09-03T05:47:21.342Z,16.07
2018-09-03T05:48:21.816Z,16.09
2018-09-03T05:49:22.291Z,16.11
2018-09-03T05:50:22.874Z,16.10
2018-09-03T05:51:23.235Z,16.09
2018-09-03T05:52:23.709Z,16.05
2018-09-03T05:53:24.184Z,15.98
2018-09-03T05:54:24.661Z,15.92
2018-09-03T05:55:25.136Z,15.84
2018-09-03T05:56:25.605Z,15.76
2018-09-03T05:57:26.078Z,15.67
2018-09-03T05:58:26.550Z,15.56
2018-09-03T05:59:27.025Z,15.46
2018-09-03T06:00:27.499Z,15.33
2018-09-03T06:01:27.975Z,15.21
2018-09-03T06:02:28.446Z,15.09
2018-09-03T06:03:28.919Z,14.97
2018-09-03T06:04:29.391Z,14.83
2018-09-03T06:05:29.864Z,14.70
2018-09-03T06:06:30.335Z,14.56
2018-09-03T06:07:30.807Z,14.42
2018-09-03T06:08:31.280Z,14.29
2018-09-03T06:09:31.753Z,14.15
2018-09-03T06:10:32.304Z,14.02
2018-09-03T06:11:32.695Z,13.89
2018-09-03T06:12:33.169Z,13.77
2018-09-03T06:13:33.638Z,13.66
2018-09-03T06:14:34.112Z,13.57
2018-09-03T06:15:34.581Z,13.49
2018-09-03T06:16:35.051Z,13.45
2018-09-03T06:17:35.523Z,13.42
2018-09-03T06:18:35.992Z,13.43
2018-09-03T06:19:36.462Z,13.45
2018-09-03T06:20:36.932Z,13.50
2018-09-03T06:21:37.402Z,13.56
2018-09-03T06:22:37.875Z,13.61
2018-09-03T06:23:38.394Z,13.73
2018-09-03T06:24:38.819Z,13.82
2018-09-03T06:25:39.284Z,13.93
2018-09-03T06:26:39.814Z,14.05
2018-09-03T06:27:40.226Z,14.14
2018-09-03T06:28:40.694Z,14.27
2018-09-03T06:29:41.166Z,14.40
2018-09-03T06:30:41.634Z,14.52
2018-09-03T06:31:42.104Z,14.67
2018-09-03T06:32:42.611Z,14.82
2018-09-03T06:33:43.046Z,14.95
2018-09-03T06:34:43.515Z,15.08
2018-09-03T06:35:43.986Z,15.22
2018-09-03T06:36:44.462Z,15.36
2018-09-03T06:37:45.034Z,15.49
2018-09-03T06:38:45.399Z,15.61
2018-09-03T06:39:45.875Z,15.77
2018-09-03T06:40:46.343Z,15.86
2018-09-03T06:41:46.815Z,15.98
2018-09-03T06:42:47.289Z,16.11
2018-09-03T06:43:47.758Z,16.20
2018-09-03T06:44:48.229Z,16.35
2018-09-03T06:45:48.765Z,16.46
2018-09-03T06:46:49.174Z,16.58
2018-09-03T06:47:49.651Z,16.70
2018-09-03T06:48:50.124Z,16.81
2018-09-03T06:49:50.596Z,16.92
2018-09-03T06:50:51.067Z,17.02
2018-09-03T06:51:51.541Z,17.12
2018-09-03T06:52:52.014Z,17.23
2018-09-03T06:53:52.487Z,17.32
2018-09-03T06:54:52.960Z,17.39
2018-09-03T06:55:53.435Z,17.44
2018-09-03T06:56:53.911Z,17.47
2018-09-03T06:57:54.382Z,17.49
2018-09-03T06:58:54.906Z,17.49
2018-09-03T06:59:55.331Z,17.46
2018-09-03T07:00:55.806Z,17.41
2018-09-03T07:01:56.279Z,17.35
2018-09-03T07:02:56.753Z,17.28
2018-09-03T07:03:57.228Z,17.19
2018-09-03T07:04:57.702Z,17.12
2018-09-03T07:05:58.184Z,17.05
2018-09-03T07:06:58.650Z,16.97
2018-09-03T07:07:59.127Z,16.88
2018-09-03T07:08:59.601Z,16.80
2018-09-03T07:10:00.074Z,16.70
2018-09-03T07:11:00.547Z,16.61
2018-09-03T07:12:01.022Z,16.49
2018-09-03T07:13:01.498Z,16.39
2018-09-03T07:14:01.970Z,16.30
2018-09-03T07:15:02.446Z,16.19
2018-09-03T07:16:02.914Z,16.10
2018-09-03T07:17:03.390Z,16.00
2018-09-03T07:18:03.866Z,15.90
2018-09-03T07:19:04.334Z,15.81
2018-09-03T07:20:04.807Z,15.72
2018-09-03T07:21:05.280Z,15.64
2018-09-03T07:22:05.753Z,15.56
2018-09-03T07:23:06.224Z,15.49
2018-09-03T07:24:06.696Z,15.41
2018-09-03T07:25:07.169Z,15.34
2018-09-03T07:26:07.640Z,15.28
2018-09-03T07:27:08.114Z,15.22
2018-09-03T07:28:08.584Z,15.17
2018-09-03T07:29:09.054Z,15.12
2018-09-03T07:30:09.528Z,15.12
2018-09-03T07:31:09.999Z,15.14
2018-09-03T07:32:10.470Z,15.20
2018-09-03T07:33:10.942Z,15.28
2018-09-03T07:34:11.412Z,15.34
2018-09-03T07:35:11.921Z,15.42
2018-09-03T07:36:12.356Z,15.51
2018-09-03T07:37:12.828Z,15.63
2018-09-03T07:38:13.298Z,15.76
2018-09-03T07:39:13.770Z,15.91
2018-09-03T07:40:14.241Z,16.09
2018-09-03T07:41:14.717Z,16.24
2018-09-03T07:42:15.185Z,16.41
2018-09-03T07:43:15.657Z,16.59
2018-09-03T07:44:16.155Z,16.77
2018-09-03T07:45:16.602Z,16.96
2018-09-03T07:46:17.077Z,17.15
2018-09-03T07:47:17.549Z,17.35
2018-09-03T07:48:18.022Z,17.57
2018-09-03T07:49:18.497Z,17.80
2018-09-03T07:50:18.974Z,18.05
2018-09-03T07:51:19.447Z,18.30
2018-09-03T07:52:19.923Z,18.56
2018-09-03T07:53:20.398Z,18.83
2018-09-03T07:54:20.926Z,19.11
2018-09-03T07:55:21.352Z,19.43
2018-09-03T07:56:21.829Z,19.77
2018-09-03T07:57:22.308Z,20.12
2018-09-03T07:58:22.789Z,20.48
2018-09-03T07:59:23.266Z,20.86
2018-09-03T08:00:23.747Z,21.22
2018-09-03T08:01:24.227Z,21.57
2018-09-03T08:02:24.707Z,21.91
2018-09-03T08:03:25.195Z,22.22
2018-09-03T08:04:25.672Z,22.53
2018-09-03T08:05:26.156Z,22.83
2018-09-03T08:06:26.637Z,23.12
2018-09-03T08:07:27.191Z,23.41
2018-09-03T08:08:27.604Z,23.65
2018-09-03T08:09:28.088Z,23.87
2018-09-03T08:10:28.573Z,24.08
2018-09-03T08:11:29.055Z,24.27
2018-09-03T08:12:29.541Z,24.43
2018-09-03T08:13:30.029Z,24.57
2018-09-03T08:14:30.510Z,24.70
2018-09-03T08:15:30.996Z,24.82
2018-09-03T08:16:31.481Z,24.93
2018-09-03T08:17:31.967Z,25.04
2018-09-03T08:18:32.456Z,25.13
2018-09-03T08:19:32.943Z,25.21
2018-09-03T08:20:33.431Z,25.28
2018-09-03T08:21:33.914Z,25.37
2018-09-03T08:22:34.400Z,25.41
2018-09-03T08:23:34.885Z,25.46
2018-09-03T08:24:35.372Z,25.52
2018-09-03T08:25:35.862Z,25.58
2018-09-03T08:26:36.550Z,25.66
2018-09-03T08:27:36.833Z,25.72
2018-09-03T08:28:37.322Z,25.79
2018-09-03T08:29:37.809Z,25.85
2018-09-03T08:30:38.299Z,25.90
2018-09-03T08:31:38.783Z,25.95
2018-09-03T08:32:39.273Z,25.99
2018-09-03T08:33:39.759Z,26.03
2018-09-03T08:34:40.247Z,26.06
2018-09-03T08:35:40.798Z,26.09
2018-09-03T08:36:41.221Z,26.09
2018-09-03T08:37:41.708Z,26.09
2018-09-03T08:38:42.399Z,26.05
2018-09-03T08:39:42.680Z,26.04
2018-09-03T08:40:43.166Z,26.02
2018-09-03T08:41:43.696Z,26.00
2018-09-03T08:42:44.136Z,25.98
2018-09-03T08:43:44.620Z,25.95
2018-09-03T08:44:45.162Z,25.91
2018-09-03T08:45:45.590Z,25.84
2018-09-03T08:46:46.073Z,25.77
2018-09-03T08:47:46.558Z,25.68
2018-09-03T08:48:47.038Z,25.53
2018-09-03T08:49:47.517Z,25.34
2018-09-03T08:50:48.003Z,25.16
2018-09-03T08:51:48.482Z,24.97
2018-09-03T08:52:48.962Z,24.76
2018-09-03T08:53:49.444Z,24.53
2018-09-03T08:54:49.976Z,24.27
2018-09-03T08:55:50.405Z,24.03
2018-09-03T08:56:50.898Z,23.82
2018-09-03T08:57:51.364Z,23.62
2018-09-03T08:58:51.845Z,23.43
2018-09-03T08:59:52.324Z,23.22
2018-09-03T09:00:52.801Z,22.98
2018-09-03T09:01:53.279Z,22.77
2018-09-03T09:02:53.757Z,22.54
2018-09-03T09:03:54.236Z,22.33
2018-09-03T09:04:54.713Z,22.13
2018-09-03T09:05:55.226Z,21.92
2018-09-03T09:06:55.667Z,21.73
2018-09-03T09:07:56.144Z,21.54
2018-09-03T09:08:56.624Z,21.36
2018-09-03T09:09:57.148Z,21.20
2018-09-03T09:10:57.576Z,21.04
2018-09-03T09:11:58.062Z,20.89
2018-09-03T09:12:58.526Z,20.76
2018-09-03T09:13:59.004Z,20.62
2018-09-03T09:14:59.538Z,20.51
2018-09-03T09:15:59.952Z,20.40
2018-09-03T09:17:00.428Z,20.31
2018-09-03T09:18:00.904Z,20.20
2018-09-03T09:19:01.378Z,20.12
2018-09-03T09:20:01.855Z,20.03
2018-09-03T09:21:02.327Z,19.95
2018-09-03T09:22:02.804Z,19.87
2018-09-03T09:23:03.278Z,19.80
2018-09-03T09:24:03.750Z,19.73
2018-09-03T09:25:04.299Z,19.68
2018-09-03T09:26:04.702Z,19.62
2018-09-03T09:27:05.174Z,19.56
2018-09-03T09:28:05.650Z,19.49
2018-09-03T09:29:06.124Z,19.43
2018-09-03T09:30:06.596Z,19.39
2018-09-03T09:31:07.069Z,19.35
2018-09-03T09:32:07.543Z,19.30
2018-09-03T09:33:08.017Z,19.25
2018-09-03T09:34:08.489Z,19.22
2018-09-03T09:35:08.963Z,19.18
2018-09-03T09:36:09.435Z,19.14
2018-09-03T09:37:09.913Z,19.11
2018-09-03T09:38:10.381Z,19.08
2018-09-03T09:39:10.853Z,19.06
2018-09-03T09:40:11.326Z,19.03
2018-09-03T09:41:11.800Z,19.02
2018-09-03T09:42:12.272Z,19.00
2018-09-03T09:43:12.749Z,18.97
2018-09-03T09:44:13.216Z,18.95
2018-09-03T09:45:13.689Z,18.94
2018-09-03T09:46:14.164Z,18.92
2018-09-03T09:47:14.637Z,18.90
2018-09-03T09:48:15.113Z,18.86
2018-09-03T09:49:15.581Z,18.85
2018-09-03T09:50:16.053Z,18.85
2018-09-03T09:51:16.730Z,18.86
2018-09-03T09:52:16.997Z,18.90
2018-09-03T09:53:17.473Z,18.92
2018-09-03T09:54:17.940Z,18.91
2018-09-03T09:55:18.413Z,18.92
2018-09-03T09:56:18.886Z,18.97
2018-09-03T09:57:19.362Z,19.03
2018-09-03T09:58:19.829Z,19.12
2018-09-03T09:59:20.302Z,19.19
2018-09-03T10:00:20.828Z,19.20
2018-09-03T10:01:21.249Z,19.22
2018-09-03T10:02:21.718Z,19.25
2018-09-03T10:03:22.191Z,19.28
2018-09-03T10:04:22.664Z,19.31
2018-09-03T10:05:23.190Z,19.31
2018-09-03T10:06:23.607Z,19.28
2018-09-03T10:07:24.080Z,19.25
2018-09-03T10:08:24.549Z,19.24
2018-09-03T10:09:25.022Z,19.24
2018-09-03T10:10:25.494Z,19.24
2018-09-03T10:11:25.967Z,19.23
2018-09-03T10:12:26.439Z,19.22
2018-09-03T10:13:26.908Z,19.19
2018-09-03T10:14:27.382Z,19.17
2018-09-03T10:15:27.853Z,19.13
2018-09-03T10:16:28.325Z,19.09
2018-09-03T10:17:28.800Z,19.06
2018-09-03T10:18:29.269Z,19.02
2018-09-03T10:19:29.742Z,18.98
2018-09-03T10:20:30.214Z,18.95
2018-09-03T10:21:30.684Z,18.92
2018-09-03T10:22:31.156Z,18.89
2018-09-03T10:23:31.626Z,18.86
2018-09-03T10:24:32.098Z,18.84
2018-09-03T10:25:32.624Z,18.81
2018-09-03T10:26:33.043Z,18.78
2018-09-03T10:27:33.516Z,18.76
2018-09-03T10:28:33.987Z,18.74
2018-09-03T10:29:34.455Z,18.72
2018-09-03T10:30:34.930Z,18.70
2018-09-03T10:31:35.400Z,18.70
2018-09-03T10:32:35.874Z,18.69
2018-09-03T10:33:36.340Z,18.69
2018-09-03T10:34:36.814Z,18.70
2018-09-03T10:35:37.286Z,18.70
2018-09-03T10:36:37.756Z,18.70
2018-09-03T10:37:38.228Z,18.69
2018-09-03T10:38:38.699Z,18.68
2018-09-03T10:39:39.171Z,18.68
2018-09-03T10:40:39.641Z,18.68
2018-09-03T10:41:40.114Z,18.67
2018-09-03T10:42:40.590Z,18.66
2018-09-03T10:43:41.057Z,18.66
2018-09-03T10:44:41.526Z,18.65
2018-09-03T10:45:42.066Z,18.64
2018-09-03T10:46:42.470Z,18.63
2018-09-03T10:47:42.957Z,18.62
2018-09-03T10:48:43.417Z,18.62
2018-09-03T10:49:43.882Z,18.61
2018-09-03T10:50:44.361Z,18.61
2018-09-03T10:51:44.825Z,18.62
2018-09-03T10:52:45.295Z,18.65
2018-09-03T10:53:45.767Z,18.68
2018-09-03T10:54:46.238Z,18.73
2018-09-03T10:55:46.709Z,18.79
2018-09-03T10:56:47.182Z,18.88
2018-09-03T10:57:47.651Z,18.97
2018-09-03T10:58:48.126Z,19.09
2018-09-03T10:59:48.596Z,19.22
2018-09-03T11:00:49.065Z,19.36
2018-09-03T11:01:49.538Z,19.49
2018-09-03T11:02:50.011Z,19.64
2018-09-03T11:03:50.485Z,19.81
2018-09-03T11:04:50.953Z,19.97
2018-09-03T11:05:51.436Z,20.16
2018-09-03T11:06:51.898Z,20.35
2018-09-03T11:07:52.374Z,20.53
2018-09-03T11:08:52.846Z,20.72
2018-09-03T11:09:53.318Z,20.91
2018-09-03T11:10:53.792Z,21.10
2018-09-03T11:11:54.266Z,21.25
2018-09-03T11:12:54.738Z,21.39
2018-09-03T11:13:55.213Z,21.53
2018-09-03T11:14:55.688Z,21.64
2018-09-03T11:15:56.162Z,21.75
2018-09-03T11:16:56.642Z,21.83
2018-09-03T11:17:57.118Z,21.90
2018-09-03T11:18:57.588Z,21.94
2018-09-03T11:19:58.103Z,21.96
2018-09-03T11:20:58.544Z,21.99
2018-09-03T11:21:59.017Z,22.01
2018-09-03T11:22:59.492Z,22.01
2018-09-03T11:24:00.004Z,22.02
2018-09-03T11:25:00.464Z,22.02
2018-09-03T11:26:00.918Z,22.00
2018-09-03T11:27:01.394Z,21.98
2018-09-03T11:28:01.870Z,21.97
2018-09-03T11:29:02.348Z,21.93
2018-09-03T11:30:02.822Z,21.90
2018-09-03T11:31:03.301Z,21.83
2018-09-03T11:32:03.777Z,21.78
2018-09-03T11:33:04.253Z,21.73
2018-09-03T11:34:04.728Z,21.67
2018-09-03T11:35:05.230Z,21.61
2018-09-03T11:36:05.680Z,21.56
2018-09-03T11:37:06.155Z,21.52
2018-09-03T11:38:06.631Z,21.47
2018-09-03T11:39:07.107Z,21.42
2018-09-03T11:40:07.587Z,21.36
2018-09-03T11:41:08.061Z,21.31
2018-09-03T11:42:08.535Z,21.25
2018-09-03T11:43:09.013Z,21.22
2018-09-03T11:44:09.487Z,21.17
2018-09-03T11:45:09.962Z,21.13
2018-09-03T11:46:10.439Z,21.08
2018-09-03T11:47:10.977Z,21.03
2018-09-03T11:48:11.388Z,21.00
2018-09-03T11:49:11.864Z,20.95
2018-09-03T11:50:12.543Z,20.90
2018-09-03T11:51:12.814Z,20.86
2018-09-03T11:52:13.293Z,20.81
2018-09-03T11:53:13.767Z,20.76
2018-09-03T11:54:14.240Z,20.72
2018-09-03T11:55:14.715Z,20.67
2018-09-03T11:56:15.192Z,20.64
2018-09-03T11:57:15.664Z,20.60
2018-09-03T11:58:16.140Z,20.56
2018-09-03T11:59:16.618Z,20.53
2018-09-03T12:00:17.091Z,20.51
2018-09-03T12:01:17.563Z,20.49
2018-09-03T12:02:18.041Z,20.46
2018-09-03T12:03:18.512Z,20.43
2018-09-03T12:04:18.988Z,20.41
2018-09-03T12:05:19.463Z,20.39
2018-09-03T12:06:19.938Z,20.36
2018-09-03T12:07:20.414Z,20.33
2018-09-03T12:08:20.886Z,20.32
2018-09-03T12:09:21.362Z,20.28
2018-09-03T12:10:21.833Z,20.26
2018-09-03T12:11:22.309Z,20.24
2018-09-03T12:12:22.786Z,20.22
2018-09-03T12:13:23.255Z,20.20
2018-09-03T12:14:23.729Z,20.17
2018-09-03T12:15:24.205Z,20.17
2018-09-03T12:16:24.679Z,20.16
2018-09-03T12:17:25.151Z,20.16
2018-09-03T12:18:25.629Z,20.16
2018-09-03T12:19:26.100Z,20.16
2018-09-03T12:20:26.579Z,20.16
2018-09-03T12:21:27.049Z,20.15
2018-09-03T12:22:27.523Z,20.14
2018-09-03T12:23:27.996Z,20.13
2018-09-03T12:24:28.471Z,20.13
2018-09-03T12:25:28.943Z,20.12
2018-09-03T12:26:29.619Z,20.13
2018-09-03T12:27:29.919Z,20.14
2018-09-03T12:28:30.365Z,20.15
2018-09-03T12:29:30.838Z,20.17
2018-09-03T12:30:31.313Z,20.18
2018-09-03T12:31:31.785Z,20.20
2018-09-03T12:32:32.267Z,20.21
2018-09-03T12:33:32.731Z,20.22
2018-09-03T12:34:33.207Z,20.21
2018-09-03T12:35:33.680Z,20.21
2018-09-03T12:36:34.157Z,20.19
2018-09-03T12:37:34.627Z,20.17
2018-09-03T12:38:35.100Z,20.15
2018-09-03T12:39:35.578Z,20.14
2018-09-03T12:40:36.051Z,20.11
2018-09-03T12:41:36.521Z,20.09
2018-09-03T12:42:36.994Z,20.07
2018-09-03T12:43:37.468Z,20.05
2018-09-03T12:44:37.940Z,20.04
2018-09-03T12:45:38.417Z,20.03
2018-09-03T12:46:38.891Z,20.01
2018-09-03T12:47:39.362Z,19.99
2018-09-03T12:48:39.835Z,19.97
2018-09-03T12:49:40.310Z,19.95
2018-09-03T12:50:40.782Z,19.94
2018-09-03T12:51:41.255Z,19.93
2018-09-03T12:52:41.728Z,19.92
2018-09-03T12:53:42.209Z,19.92
2018-09-03T12:54:42.675Z,19.91
2018-09-03T12:55:43.148Z,19.90
2018-09-03T12:56:43.621Z,19.90
2018-09-03T12:57:44.112Z,19.90
2018-09-03T12:58:44.591Z,19.91